createdAt,value
2022-08-07T00:01:44.609Z,18.52
2022-08-07T00:04:09.637Z,18.41
2022-08-07T00:06:41.134Z,18.43
2022-08-07T00:09:22.171Z,18.38
2022-08-07T00:11:56.012Z,18.42
2022-08-07T00:14:30.550Z,18.43
2022-08-07T00:17:01.976Z,18.37
2022-08-07T00:19:59.540Z,18.16
2022-08-07T00:22:24.569Z,18.28
2022-08-07T00:25:04.878Z,18.29
2022-08-07T00:27:51.845Z,18.33
2022-08-07T00:30:21.920Z,18.32
2022-08-07T00:32:54.755Z,18.31
2022-08-07T00:35:23.153Z,18.33
2022-08-07T00:37:50.407Z,18.33
2022-08-07T00:40:36.521Z,18.35
2022-08-07T00:43:04.325Z,18.26
2022-08-07T00:45:36.719Z,18.23
2022-08-07T00:48:09.083Z,18.27
2022-08-07T00:50:46.161Z,18.33
2022-08-07T00:53:20.106Z,18.25
2022-08-07T00:56:02.383Z,18.25
2022-08-07T00:58:31.429Z,18.28
2022-08-07T01:00:58.412Z,18.16
2022-08-07T01:03:54.858Z,18.28
2022-08-07T01:06:12.325Z,18.24
2022-08-07T01:08:43.320Z,18.21
2022-08-07T01:12:04.425Z,18.18
2022-08-07T01:14:07.872Z,18.15
2022-08-07T01:16:36.655Z,18.15
2022-08-07T01:19:04.732Z,18.18
2022-08-07T01:21:41.400Z,18.15
2022-08-07T01:24:09.242Z,18.11
2022-08-07T01:26:36.820Z,18.04
2022-08-07T01:29:04.587Z,18.16
2022-08-07T01:31:42.465Z,18.12
2022-08-07T01:34:14.729Z,18.10
2022-08-07T01:36:41.928Z,18.13
2022-08-07T01:39:11.016Z,18.08
2022-08-07T01:42:01.711Z,18.08
2022-08-07T01:44:26.139Z,18.09
2022-08-07T01:46:53.275Z,18.11
2022-08-07T01:49:21.418Z,18.01
2022-08-07T01:52:01.694Z,17.87
2022-08-07T01:54:37.108Z,18.00
2022-08-07T01:57:08.413Z,18.05
2022-08-07T01:59:53.940Z,17.94
2022-08-07T02:03:11.334Z,17.99
2022-08-07T02:05:43.205Z,17.89
2022-08-07T02:08:10.899Z,17.89
2022-08-07T02:10:42.887Z,17.98
2022-08-07T02:13:10.851Z,17.84
2022-08-07T02:15:39.721Z,17.98
2022-08-07T02:18:10.015Z,17.99
2022-08-07T02:20:40.215Z,17.90
2022-08-07T02:23:11.195Z,17.93
2022-08-07T02:26:30.830Z,17.87
2022-08-07T02:28:29.557Z,17.92
2022-08-07T02:30:57.740Z,17.80
2022-08-07T02:33:32.724Z,17.74
2022-08-07T02:36:29.206Z,17.76
2022-08-07T02:39:01.555Z,17.77
2022-08-07T02:41:33.586Z,17.79
2022-08-07T02:44:05.153Z,17.42
2022-08-07T02:46:36.816Z,17.33
2022-08-07T02:49:05.591Z,17.43
2022-08-07T02:51:42.576Z,17.26
2022-08-07T02:54:20.628Z,17.55
2022-08-07T02:56:53.747Z,17.56
2022-08-07T02:59:27.725Z,17.57
2022-08-07T03:01:55.518Z,17.63
2022-08-07T03:04:23.603Z,17.63
2022-08-07T03:06:52.514Z,17.61
2022-08-07T03:09:43.443Z,17.57
2022-08-07T03:12:21.662Z,17.66
2022-08-07T03:14:52.294Z,17.56
2022-08-07T03:17:19.902Z,17.47
2022-08-07T03:19:54.840Z,17.44
2022-08-07T03:22:24.260Z,17.49
2022-08-07T03:24:57.304Z,17.52
2022-08-07T03:27:30.286Z,17.53
2022-08-07T03:30:10.841Z,17.49
2022-08-07T03:32:56.974Z,17.50
2022-08-07T03:35:27.577Z,17.21
2022-08-07T03:38:13.375Z,17.24
2022-08-07T03:40:40.302Z,17.11
2022-08-07T03:43:14.617Z,17.26
2022-08-07T03:45:43.688Z,17.11
2022-08-07T03:48:14.831Z,17.17
2022-08-07T03:50:43.187Z,17.06
2022-08-07T03:53:50.006Z,17.14
2022-08-07T03:56:10.600Z,17.32
2022-08-07T03:59:08.891Z,17.27
2022-08-07T04:01:30.197Z,17.01
2022-08-07T04:03:59.169Z,17.14
2022-08-07T04:06:36.182Z,17.16
2022-08-07T04:09:05.682Z,17.16
2022-08-07T04:12:27.984Z,17.15
2022-08-07T04:14:37.721Z,17.30
2022-08-07T04:17:19.770Z,17.31
2022-08-07T04:19:51.903Z,17.26
2022-08-07T04:22:23.575Z,17.09
2022-08-07T04:24:55.869Z,17.13
2022-08-07T04:27:25.634Z,17.03
2022-08-07T04:30:01.629Z,17.25
2022-08-07T04:32:34.733Z,17.24
2022-08-07T04:35:05.371Z,17.19
2022-08-07T04:37:52.825Z,16.98
2022-08-07T04:40:20.510Z,16.76
2022-08-07T04:42:46.996Z,16.98
2022-08-07T04:45:52.141Z,17.13
2022-08-07T04:48:13.004Z,17.10
2022-08-07T04:50:52.161Z,17.18
2022-08-07T04:53:27.845Z,16.92
2022-08-07T04:58:12.230Z,16.74
2022-08-07T05:00:09.632Z,16.54
2022-08-07T05:02:20.587Z,16.89
2022-08-07T05:05:11.548Z,16.81
2022-08-07T05:08:16.250Z,16.72
2022-08-07T05:10:50.844Z,16.86
2022-08-07T05:14:52.818Z,16.69
2022-08-07T05:16:29.397Z,16.34
2022-08-07T05:19:07.537Z,16.50
2022-08-07T05:21:58.976Z,16.65
2022-08-07T05:24:24.732Z,16.51
2022-08-07T05:26:59.668Z,16.54
2022-08-07T05:29:27.829Z,16.52
2022-08-07T05:32:15.520Z,16.72
2022-08-07T05:34:42.874Z,16.68
2022-08-07T05:37:10.641Z,16.45
2022-08-07T05:40:14.084Z,16.09
2022-08-07T05:42:34.291Z,16.09
2022-08-07T05:45:14.436Z,16.53
2022-08-07T05:48:01.571Z,16.72
2022-08-07T05:50:31.020Z,16.61
2022-08-07T05:52:58.021Z,16.25
2022-08-07T05:55:25.600Z,16.40
2022-08-07T05:58:12.991Z,16.63
2022-08-07T06:00:41.123Z,16.56
2022-08-07T06:03:15.568Z,16.47
2022-08-07T06:05:49.104Z,16.63
2022-08-07T06:08:30.971Z,16.66
2022-08-07T06:10:59.509Z,16.75
2022-08-07T06:14:10.795Z,16.73
2022-08-07T06:16:18.835Z,16.78
2022-08-07T06:18:51.814Z,16.87
2022-08-07T06:22:16.647Z,16.65
2022-08-07T06:24:46.034Z,17.14
2022-08-07T06:26:55.807Z,17.07
2022-08-07T06:29:27.887Z,16.98
2022-08-07T06:31:55.920Z,16.89
2022-08-07T06:34:29.805Z,17.03
2022-08-07T06:36:57.057Z,17.04
2022-08-07T06:40:13.051Z,16.92
2022-08-07T06:42:39.899Z,17.05
2022-08-07T06:45:13.323Z,16.69
2022-08-07T06:47:57.396Z,16.61
2022-08-07T06:50:26.956Z,16.89
2022-08-07T06:52:58.045Z,16.89
2022-08-07T06:55:54.021Z,17.00
2022-08-07T06:58:16.671Z,16.85
2022-08-07T07:00:48.310Z,16.81
2022-08-07T07:03:26.512Z,16.79
2022-08-07T07:06:10.972Z,16.86
2022-08-07T07:08:39.761Z,16.86
2022-08-07T07:12:08.494Z,17.14
2022-08-07T07:14:02.262Z,17.01
2022-08-07T07:16:33.345Z,17.28
2022-08-07T07:19:11.441Z,17.03
2022-08-07T07:22:05.431Z,16.89
2022-08-07T07:24:43.234Z,17.20
2022-08-07T07:27:35.845Z,17.12
2022-08-07T07:30:32.783Z,17.32
2022-08-07T07:33:03.745Z,17.37
2022-08-07T07:35:33.750Z,17.26
2022-08-07T07:38:20.595Z,17.19
2022-08-07T07:40:50.296Z,17.34
2022-08-07T07:43:18.730Z,17.48
2022-08-07T07:46:37.884Z,17.62
2022-08-07T07:48:42.532Z,17.67
2022-08-07T07:51:12.859Z,17.54
2022-08-07T07:53:51.683Z,17.50
2022-08-07T07:56:29.792Z,17.55
2022-08-07T07:58:59.627Z,17.48
2022-08-07T08:02:01.610Z,17.66
2022-08-07T08:04:17.294Z,17.67
2022-08-07T08:06:50.681Z,17.67
2022-08-07T08:09:23.203Z,17.74
2022-08-07T08:12:02.413Z,17.87
2022-08-07T08:14:36.492Z,17.91
2022-08-07T08:18:36.432Z,18.00
2022-08-07T08:20:17.030Z,18.08
2022-08-07T08:23:08.219Z,18.00
2022-08-07T08:25:56.637Z,18.05
2022-08-07T08:28:38.627Z,18.25
2022-08-07T08:31:13.844Z,18.29
2022-08-07T08:33:49.579Z,18.26
2022-08-07T08:36:30.022Z,18.20
2022-08-07T08:38:59.986Z,18.24
2022-08-07T08:41:58.762Z,18.22
2022-08-07T08:44:48.582Z,18.22
2022-08-07T08:47:26.892Z,18.40
2022-08-07T08:50:08.800Z,18.50
2022-08-07T08:52:54.078Z,18.46
2022-08-07T08:55:55.379Z,18.56
2022-08-07T08:58:32.869Z,18.40
2022-08-07T09:01:15.334Z,18.48
2022-08-07T09:03:55.314Z,18.42
2022-08-07T09:06:36.708Z,18.63
2022-08-07T09:09:23.604Z,18.56
2022-08-07T09:12:20.083Z,18.58
2022-08-07T09:16:20.082Z,18.79
2022-08-07T09:18:40.371Z,18.76
2022-08-07T09:21:34.470Z,18.84
2022-08-07T09:24:55.985Z,18.90
2022-08-07T09:27:59.700Z,19.08
2022-08-07T09:30:55.091Z,18.94
2022-08-07T09:33:56.817Z,19.08
2022-08-07T09:36:28.565Z,19.08
2022-08-07T09:39:27.438Z,19.08
2022-08-07T09:42:24.945Z,19.10
2022-08-07T09:47:25.642Z,19.19
2022-08-07T09:48:50.248Z,19.28
2022-08-07T09:52:15.777Z,19.40
2022-08-07T09:54:48.237Z,19.54
2022-08-07T09:57:31.708Z,19.55
2022-08-07T10:00:14.998Z,19.61
2022-08-07T10:02:56.605Z,19.61
2022-08-07T10:06:00.895Z,19.69
2022-08-07T10:08:44.406Z,19.88
2022-08-07T10:12:03.094Z,19.89
2022-08-07T10:15:15.366Z,20.01
2022-08-07T10:18:01.179Z,20.10
2022-08-07T10:20:50.808Z,20.06
2022-08-07T10:24:06.372Z,19.96
2022-08-07T10:27:01.043Z,20.26
2022-08-07T10:29:54.997Z,20.44
2022-08-07T10:32:36.788Z,20.56
2022-08-07T10:36:05.525Z,20.53
2022-08-07T10:38:58.189Z,20.49
2022-08-07T10:41:52.393Z,20.47
2022-08-07T10:44:38.309Z,20.64
2022-08-07T10:47:52.524Z,20.66
2022-08-07T10:50:34.630Z,20.81
2022-08-07T10:53:27.656Z,20.87
2022-08-07T10:56:30.107Z,20.94
2022-08-07T10:59:30.402Z,21.05
2022-08-07T11:02:32.764Z,21.04
2022-08-07T11:05:50.433Z,21.05
2022-08-07T11:08:36.645Z,20.90
2022-08-07T11:11:20.273Z,21.18
2022-08-07T11:14:44.639Z,21.15
2022-08-07T11:17:23.474Z,21.13
2022-08-07T11:20:24.506Z,21.23
2022-08-07T11:23:09.256Z,21.32
2022-08-07T11:25:49.814Z,21.39
2022-08-07T11:28:24.859Z,21.29
2022-08-07T11:30:51.430Z,21.44
2022-08-07T11:33:54.354Z,21.53
2022-08-07T11:36:40.796Z,21.64
2022-08-07T11:39:07.462Z,21.65
2022-08-07T11:42:01.330Z,21.67
2022-08-07T11:44:52.736Z,21.64
2022-08-07T11:48:05.976Z,21.72
2022-08-07T11:51:41.717Z,21.69
2022-08-07T11:54:10.250Z,21.55
2022-08-07T11:56:53.228Z,21.89
2022-08-07T12:00:11.876Z,21.70
2022-08-07T12:03:00.170Z,21.59
2022-08-07T12:05:58.352Z,21.66
2022-08-07T12:08:37.892Z,21.92
2022-08-07T12:11:20.718Z,22.12
2022-08-07T12:14:13.131Z,22.26
2022-08-07T12:16:53.743Z,22.34
2022-08-07T12:20:02.794Z,22.30
2022-08-07T12:23:09.103Z,22.32
2022-08-07T12:26:06.271Z,22.28
2022-08-07T12:28:54.959Z,22.45
2022-08-07T12:31:53.340Z,22.43
2022-08-07T12:34:26.018Z,22.49
2022-08-07T12:36:56.405Z,22.44
2022-08-07T12:39:42.698Z,22.60
2022-08-07T12:42:13.352Z,22.68
2022-08-07T12:44:45.245Z,22.80
2022-08-07T12:47:37.543Z,22.91
2022-08-07T12:50:39.235Z,22.93
2022-08-07T12:53:19.251Z,22.85
2022-08-07T12:56:17.184Z,22.71
2022-08-07T12:58:46.861Z,22.86
2022-08-07T13:01:32.132Z,22.97
2022-08-07T13:04:33.998Z,22.99
2022-08-07T13:08:12.051Z,23.04
2022-08-07T13:10:29.301Z,22.98
2022-08-07T13:13:02.264Z,23.02
2022-08-07T13:15:43.023Z,23.21
2022-08-07T13:18:44.510Z,23.29
2022-08-07T13:21:50.331Z,23.33
2022-08-07T13:24:54.109Z,23.08
2022-08-07T13:28:05.855Z,23.18
2022-08-07T13:30:19.004Z,23.35
2022-08-07T13:32:55.342Z,23.39
2022-08-07T13:35:59.523Z,23.28
2022-08-07T13:38:41.904Z,23.50
2022-08-07T13:41:16.535Z,23.55
2022-08-07T13:43:52.686Z,23.52
2022-08-07T13:46:32.825Z,23.62
2022-08-07T13:49:04.127Z,23.45
2022-08-07T13:52:23.016Z,23.52
2022-08-07T13:54:30.476Z,23.63
2022-08-07T13:57:02.661Z,23.36
2022-08-07T13:59:34.592Z,23.47
2022-08-07T14:02:10.490Z,23.67
2022-08-07T14:04:50.076Z,23.79
2022-08-07T14:07:33.598Z,23.45
2022-08-07T14:10:20.419Z,23.51
2022-08-07T14:13:02.930Z,23.48
2022-08-07T14:15:39.489Z,23.78
2022-08-07T14:18:30.741Z,23.79
2022-08-07T14:22:00.743Z,23.91
2022-08-07T14:24:06.722Z,23.90
2022-08-07T14:26:39.276Z,23.98
2022-08-07T14:30:08.043Z,23.83
2022-08-07T14:32:01.588Z,23.84
2022-08-07T14:34:30.881Z,24.08
2022-08-07T14:37:03.163Z,24.19
2022-08-07T14:40:16.418Z,24.09
2022-08-07T14:42:32.621Z,24.12
2022-08-07T14:45:21.432Z,24.15
2022-08-07T14:47:53.044Z,24.15
2022-08-07T14:50:28.027Z,24.14
2022-08-07T14:52:56.646Z,24.25
2022-08-07T14:55:35.528Z,24.16
2022-08-07T14:58:27.241Z,24.17
2022-08-07T15:00:55.397Z,24.30
2022-08-07T15:03:52.339Z,24.45
2022-08-07T15:06:15.303Z,24.20
2022-08-07T15:08:50.418Z,24.26
2022-08-07T15:11:54.112Z,24.47
2022-08-07T15:20:31.561Z,24.37
2022-08-07T15:25:55.498Z,24.39
2022-08-07T15:32:00.685Z,24.29
2022-08-07T15:34:02.819Z,24.40
2022-08-07T15:42:46.003Z,24.32
2022-08-07T15:44:53.336Z,24.25
2022-08-07T15:48:00.380Z,24.25
2022-08-07T15:51:01.247Z,24.10
2022-08-07T15:53:15.223Z,24.32
2022-08-07T15:56:02.524Z,24.37
2022-08-07T15:58:38.536Z,24.30
2022-08-07T16:01:12.515Z,23.77
2022-08-07T16:03:46.401Z,23.57
2022-08-07T16:06:14.697Z,23.79
2022-08-07T16:08:45.628Z,23.92
2022-08-07T16:11:41.500Z,24.13
2022-08-07T16:14:34.344Z,23.98
2022-08-07T16:18:00.813Z,24.05
2022-08-07T16:21:44.044Z,24.03
2022-08-07T16:23:58.850Z,23.66
2022-08-07T16:26:30.945Z,24.02
2022-08-07T16:30:11.167Z,23.87
2022-08-07T16:32:32.946Z,24.04
2022-08-07T16:35:57.024Z,24.10
2022-08-07T16:38:19.284Z,24.10
2022-08-07T16:41:18.276Z,24.11
2022-08-07T16:44:40.554Z,24.07
2022-08-07T16:47:25.191Z,23.88
2022-08-07T16:50:35.740Z,23.98
2022-08-07T16:54:02.608Z,23.97
2022-08-07T16:56:49.804Z,23.84
2022-08-07T16:59:46.681Z,23.88
2022-08-07T17:02:53.633Z,23.99
2022-08-07T17:06:02.264Z,24.08
2022-08-07T17:09:04.394Z,23.63
2022-08-07T17:12:04.936Z,23.75
2022-08-07T17:15:05.984Z,23.82
2022-08-07T17:17:44.255Z,23.56
2022-08-07T17:20:22.205Z,23.54
2022-08-07T17:23:02.611Z,23.52
2022-08-07T17:25:52.276Z,23.70
2022-08-07T17:28:57.652Z,23.58
2022-08-07T17:31:44.276Z,23.74
2022-08-07T17:35:08.858Z,23.70
2022-08-07T17:38:06.897Z,23.74
2022-08-07T17:40:43.329Z,23.64
2022-08-07T17:43:39.663Z,23.52
2022-08-07T17:46:37.999Z,23.29
2022-08-07T17:49:44.601Z,23.40
2022-08-07T17:52:41.139Z,23.39
2022-08-07T17:55:12.655Z,23.40
2022-08-07T17:58:08.159Z,23.38
2022-08-07T18:00:48.803Z,23.36
2022-08-07T18:03:21.508Z,23.28
2022-08-07T18:06:02.691Z,23.33
2022-08-07T18:09:01.295Z,23.20
2022-08-07T18:12:17.898Z,23.28
2022-08-07T18:14:50.898Z,23.27
2022-08-07T18:18:47.642Z,23.29
2022-08-07T18:21:08.290Z,23.24
2022-08-07T18:23:43.321Z,23.21
2022-08-07T18:26:16.302Z,23.19
2022-08-07T18:28:58.545Z,23.16
2022-08-07T18:31:40.599Z,23.09
2022-08-07T18:35:01.536Z,23.12
2022-08-07T18:38:59.265Z,22.87
2022-08-07T18:41:09.408Z,22.93
2022-08-07T18:43:57.652Z,22.96
2022-08-07T18:46:37.338Z,22.78
2022-08-07T18:50:32.315Z,22.82
2022-08-07T18:52:53.690Z,22.55
2022-08-07T18:55:42.931Z,22.65
2022-08-07T18:58:51.772Z,22.61
2022-08-07T19:02:32.905Z,22.58
2022-08-07T19:04:57.874Z,22.53
2022-08-07T19:07:59.356Z,22.53
2022-08-07T19:10:51.221Z,22.37
2022-08-07T19:13:34.015Z,22.39
2022-08-07T19:16:43.640Z,22.40
2022-08-07T19:19:16.181Z,22.33
2022-08-07T19:22:04.607Z,22.26
2022-08-07T19:24:48.805Z,22.21
2022-08-07T19:28:30.086Z,22.22
2022-08-07T19:31:01.926Z,22.16
2022-08-07T19:33:08.312Z,22.13
2022-08-07T19:35:42.044Z,22.12
2022-08-07T19:38:16.742Z,22.07
2022-08-07T19:40:49.945Z,21.86
2022-08-07T19:43:43.623Z,21.98
2022-08-07T19:46:22.351Z,21.93
2022-08-07T19:49:04.512Z,21.85
2022-08-07T19:51:52.760Z,21.84
2022-08-07T19:54:34.191Z,21.79
2022-08-07T19:58:00.143Z,21.75
2022-08-07T20:00:08.833Z,21.69
2022-08-07T20:02:52.142Z,21.66
2022-08-07T20:05:28.127Z,21.62
2022-08-07T20:08:04.727Z,21.59
2022-08-07T20:10:54.368Z,21.47
2022-08-07T20:13:42.162Z,21.31
2022-08-07T20:16:22.435Z,21.16
2022-08-07T20:18:59.303Z,21.31
2022-08-07T20:21:41.728Z,21.31
2022-08-07T20:24:28.832Z,21.26
2022-08-07T20:27:01.954Z,21.26
2022-08-07T20:29:49.402Z,21.15
2022-08-07T20:32:25.220Z,21.12
2022-08-07T20:34:56.044Z,21.13
2022-08-07T20:37:59.262Z,20.97
2022-08-07T20:40:37.434Z,21.01
2022-08-07T20:43:16.953Z,20.97
2022-08-07T20:46:27.105Z,20.90
2022-08-07T20:49:53.995Z,20.85
2022-08-07T20:51:30.838Z,20.75
2022-08-07T20:54:15.158Z,20.79
2022-08-07T20:56:46.227Z,20.79
2022-08-07T21:00:05.541Z,20.68
2022-08-07T21:02:31.659Z,20.61
2022-08-07T21:04:59.319Z,20.53
2022-08-07T21:07:28.179Z,20.48
2022-08-07T21:10:00.392Z,20.43
2022-08-07T21:12:31.757Z,20.43
2022-08-07T21:15:02.455Z,20.18
2022-08-07T21:18:01.929Z,20.11
2022-08-07T21:20:29.885Z,20.16
2022-08-07T21:23:08.389Z,20.10
2022-08-07T21:26:03.112Z,20.21
2022-08-07T21:28:48.281Z,20.12
2022-08-07T21:32:10.956Z,20.13
2022-08-07T21:34:33.330Z,20.09
2022-08-07T21:37:07.763Z,20.06
2022-08-07T21:39:44.739Z,20.04
2022-08-07T21:42:42.246Z,20.00
2022-08-07T21:46:08.117Z,19.92
2022-08-07T21:48:28.261Z,19.89
2022-08-07T21:51:02.008Z,19.78
2022-08-07T21:53:46.478Z,19.81
2022-08-07T21:56:39.595Z,19.75
2022-08-07T21:59:29.660Z,19.71
2022-08-07T22:02:11.315Z,19.68
2022-08-07T22:04:53.470Z,19.60
2022-08-07T22:07:31.870Z,19.55
2022-08-07T22:10:14.398Z,19.54
2022-08-07T22:12:59.383Z,19.43
2022-08-07T22:16:38.653Z,19.45
2022-08-07T22:18:24.151Z,19.41
2022-08-07T22:21:14.436Z,19.36
2022-08-07T22:23:47.900Z,19.30
2022-08-07T22:26:23.197Z,19.24
2022-08-07T22:29:15.058Z,19.14
2022-08-07T22:32:05.561Z,19.15
2022-08-07T22:34:41.045Z,19.13
2022-08-07T22:38:03.311Z,19.05
2022-08-07T22:40:49.736Z,19.02
2022-08-07T22:43:23.445Z,18.95
2022-08-07T22:47:02.265Z,18.89
2022-08-07T22:49:33.993Z,18.88
2022-08-07T22:52:36.848Z,18.80
2022-08-07T22:55:30.809Z,18.71
2022-08-07T22:58:02.809Z,18.69
2022-08-07T23:00:40.749Z,18.69
2022-08-07T23:03:58.062Z,18.65
2022-08-07T23:06:36.209Z,18.56
2022-08-07T23:10:04.644Z,18.54
2022-08-07T23:12:36.907Z,18.51
2022-08-07T23:15:03.544Z,18.48
2022-08-07T23:18:02.224Z,18.41
2022-08-07T23:20:51.258Z,18.39
2022-08-07T23:24:06.554Z,18.37
2022-08-07T23:26:19.188Z,18.29
2022-08-07T23:30:36.227Z,18.21
2022-08-07T23:34:35.551Z,18.21
2022-08-07T23:35:54.323Z,18.18
2022-08-07T23:38:36.948Z,18.12
2022-08-07T23:42:02.079Z,17.90
2022-08-07T23:44:54.523Z,18.02
2022-08-07T23:47:42.245Z,18.03
2022-08-07T23:50:22.732Z,17.92
2022-08-07T23:53:08.674Z,17.82
2022-08-07T23:55:54.262Z,17.90
2022-08-07T23:58:38.439Z,17.89
